sensor_id;sensor_type;location;lat;lon;timestamp;pressure;altitude;pressure_sealevel;temperature;humidity
44765;BME280;30484;52.382;5.260;2023-03-22T00:00:50;100957.50;;;13.22;100.00
44765;BME280;30484;52.382;5.260;2023-03-22T00:03:19;100945.44;;;13.29;100.00
44765;BME280;30484;52.382;5.260;2023-03-22T00:05:48;100938.44;;;13.43;100.00
44765;BME280;30484;52.382;5.260;2023-03-22T00:08:18;100940.97;;;13.30;100.00
44765;BME280;30484;52.382;5.260;2023-03-22T00:10:47;100936.00;;;13.08;100.00
44765;BME280;30484;52.382;5.260;2023-03-22T00:13:15;100947.19;;;13.30;100.00
44765;BME280;30484;52.382;5.260;2023-03-22T00:15:44;100935.44;;;12.87;100.00
44765;BME280;30484;52.382;5.260;2023-03-22T00:18:15;100926.50;;;13.33;100.00
44765;BME280;30484;52.382;5.260;2023-03-22T00:20:48;100927.59;;;13.44;100.00
44765;BME280;30484;52.382;5.260;2023-03-22T00:23:19;100922.34;;;13.57;100.00
44765;BME280;30484;52.382;5.260;2023-03-22T00:25:48;100936.09;;;12.76;100.00
44765;BME280;30484;52.382;5.260;2023-03-22T00:28:19;100924.03;;;13.13;100.00
44765;BME280;30484;52.382;5.260;2023-03-22T00:30:52;100911.09;;;13.06;100.00
44765;BME280;30484;52.382;5.260;2023-03-22T00:33:22;100924.00;;;12.99;100.00
44765;BME280;30484;52.382;5.260;2023-03-22T00:35:53;100917.38;;;13.66;100.00
44765;BME280;30484;52.382;5.260;2023-03-22T00:38:24;100907.09;;;13.13;100.00
44765;BME280;30484;52.382;5.260;2023-03-22T00:41:13;100913.81;;;13.20;100.00
44765;BME280;30484;52.382;5.260;2023-03-22T00:43:43;100910.41;;;13.33;100.00
44765;BME280;30484;52.382;5.260;2023-03-22T00:46:13;100896.44;;;13.71;100.00
44765;BME280;30484;52.382;5.260;2023-03-22T00:48:43;100905.47;;;13.25;100.00
44765;BME280;30484;52.382;5.260;2023-03-22T00:51:15;100897.59;;;13.52;100.00
44765;BME280;30484;52.382;5.260;2023-03-22T00:53:45;100892.16;;;13.23;100.00
44765;BME280;30484;52.382;5.260;2023-03-22T00:56:19;100890.22;;;13.56;100.00
44765;BME280;30484;52.382;5.260;2023-03-22T00:58:49;100893.66;;;12.99;100.00
44765;BME280;30484;52.382;5.260;2023-03-22T01:01:18;100893.41;;;13.18;100.00
44765;BME280;30484;52.382;5.260;2023-03-22T01:03:47;100886.03;;;13.21;100.00
44765;BME280;30484;52.382;5.260;2023-03-22T01:06:17;100887.72;;;13.38;100.00
44765;BME280;30484;52.382;5.260;2023-03-22T01:08:47;100883.63;;;13.61;100.00
44765;BME280;30484;52.382;5.260;2023-03-22T01:11:17;100879.59;;;13.54;100.00
44765;BME280;30484;52.382;5.260;2023-03-22T01:13:46;100877.09;;;13.66;100.00
44765;BME280;30484;52.382;5.260;2023-03-22T01:16:15;100884.00;;;13.10;100.00
44765;BME280;30484;52.382;5.260;2023-03-22T01:18:45;100874.75;;;13.30;100.00
44765;BME280;30484;52.382;5.260;2023-03-22T01:21:13;100870.31;;;13.15;100.00
44765;BME280;30484;52.382;5.260;2023-03-22T01:23:42;100864.25;;;13.56;100.00
44765;BME280;30484;52.382;5.260;2023-03-22T01:26:13;100861.66;;;13.69;100.00
44765;BME280;30484;52.382;5.260;2023-03-22T01:28:41;100855.00;;;13.89;100.00
44765;BME280;30484;52.382;5.260;2023-03-22T01:31:10;100851.22;;;13.50;100.00
44765;BME280;30484;52.382;5.260;2023-03-22T01:33:38;100844.22;;;14.04;100.00
44765;BME280;30484;52.382;5.260;2023-03-22T01:36:08;100839.88;;;13.45;100.00
44765;BME280;30484;52.382;5.260;2023-03-22T01:38:36;100831.66;;;13.77;100.00
44765;BME280;30484;52.382;5.260;2023-03-22T01:41:06;100831.88;;;14.01;100.00
44765;BME280;30484;52.382;5.260;2023-03-22T01:43:36;100826.09;;;13.51;100.00
44765;BME280;30484;52.382;5.260;2023-03-22T01:46:05;100825.78;;;14.12;100.00
44765;BME280;30484;52.382;5.260;2023-03-22T01:48:37;100807.66;;;13.88;100.00
44765;BME280;30484;52.382;5.260;2023-03-22T01:51:11;100822.09;;;14.00;100.00
44765;BME280;30484;52.382;5.260;2023-03-22T01:53:44;100821.97;;;13.31;100.00
44765;BME280;30484;52.382;5.260;2023-03-22T01:56:17;100803.25;;;13.73;100.00
44765;BME280;30484;52.382;5.260;2023-03-22T01:58:48;100803.19;;;13.60;100.00
44765;BME280;30484;52.382;5.260;2023-03-22T02:01:17;100796.47;;;13.67;100.00
44765;BME280;30484;52.382;5.260;2023-03-22T02:03:53;100788.16;;;13.85;100.00
44765;BME280;30484;52.382;5.260;2023-03-22T02:06:23;100776.72;;;13.54;100.00
44765;BME280;30484;52.382;5.260;2023-03-22T02:08:52;100777.03;;;13.35;100.00
44765;BME280;30484;52.382;5.260;2023-03-22T02:11:29;100773.38;;;13.50;100.00
44765;BME280;30484;52.382;5.260;2023-03-22T02:14:13;100772.78;;;13.16;100.00
44765;BME280;30484;52.382;5.260;2023-03-22T02:16:57;100767.78;;;13.68;100.00
44765;BME280;30484;52.382;5.260;2023-03-22T02:20:11;100761.41;;;13.27;100.00
44765;BME280;30484;52.382;5.260;2023-03-22T02:23:29;100752.50;;;13.55;100.00
44765;BME280;30484;52.382;5.260;2023-03-22T02:29:24;100746.50;;;13.64;100.00
44765;BME280;30484;52.382;5.260;2023-03-22T02:35:40;100739.81;;;13.57;100.00
44765;BME280;30484;52.382;5.260;2023-03-22T02:39:06;100736.97;;;13.46;100.00
44765;BME280;30484;52.382;5.260;2023-03-22T02:41:47;100738.50;;;13.36;100.00
44765;BME280;30484;52.382;5.260;2023-03-22T02:44:25;100731.94;;;13.69;100.00
44765;BME280;30484;52.382;5.260;2023-03-22T02:47:00;100725.25;;;13.61;100.00
44765;BME280;30484;52.382;5.260;2023-03-22T02:49:34;100715.59;;;13.30;100.00
44765;BME280;30484;52.382;5.260;2023-03-22T02:52:13;100715.50;;;13.46;100.00
44765;BME280;30484;52.382;5.260;2023-03-22T02:54:51;100702.44;;;13.54;100.00
44765;BME280;30484;52.382;5.260;2023-03-22T02:57:24;100704.13;;;13.70;100.00
44765;BME280;30484;52.382;5.260;2023-03-22T02:59:58;100703.66;;;13.90;100.00
44765;BME280;30484;52.382;5.260;2023-03-22T03:02:28;100712.13;;;13.28;100.00
44765;BME280;30484;52.382;5.260;2023-03-22T03:04:58;100708.03;;;13.08;100.00
44765;BME280;30484;52.382;5.260;2023-03-22T03:07:28;100702.28;;;13.43;100.00
44765;BME280;30484;52.382;5.260;2023-03-22T03:09:59;100713.69;;;13.03;100.00
44765;BME280;30484;52.382;5.260;2023-03-22T03:12:28;100707.88;;;13.67;100.00
44765;BME280;30484;52.382;5.260;2023-03-22T03:14:57;100703.72;;;13.49;100.00
44765;BME280;30484;52.382;5.260;2023-03-22T03:17:40;100702.25;;;13.57;100.00
44765;BME280;30484;52.382;5.260;2023-03-22T03:20:23;100707.44;;;13.46;100.00
44765;BME280;30484;52.382;5.260;2023-03-22T03:23:11;100709.75;;;13.23;100.00
44765;BME280;30484;52.382;5.260;2023-03-22T03:25:52;100709.66;;;13.39;100.00
44765;BME280;30484;52.382;5.260;2023-03-22T03:28:30;100705.34;;;13.78;100.00
44765;BME280;30484;52.382;5.260;2023-03-22T03:31:15;100696.88;;;13.57;100.00
44765;BME280;30484;52.382;5.260;2023-03-22T03:33:52;100697.03;;;13.69;100.00
44765;BME280;30484;52.382;5.260;2023-03-22T03:36:24;100707.94;;;13.80;100.00
44765;BME280;30484;52.382;5.260;2023-03-22T03:38:54;100691.88;;;13.66;100.00
44765;BME280;30484;52.382;5.260;2023-03-22T03:41:27;100689.34;;;13.50;100.00
44765;BME280;30484;52.382;5.260;2023-03-22T03:43:58;100691.97;;;13.91;100.00
44765;BME280;30484;52.382;5.260;2023-03-22T03:46:26;100684.59;;;13.53;100.00
44765;BME280;30484;52.382;5.260;2023-03-22T03:48:56;100711.09;;;13.72;100.00
44765;BME280;30484;52.382;5.260;2023-03-22T03:51:27;100691.78;;;14.07;100.00
44765;BME280;30484;52.382;5.260;2023-03-22T03:53:55;100697.97;;;14.35;100.00
44765;BME280;30484;52.382;5.260;2023-03-22T03:56:25;100696.63;;;14.15;100.00
44765;BME280;30484;52.382;5.260;2023-03-22T03:58:54;100697.78;;;13.71;100.00
44765;BME280;30484;52.382;5.260;2023-03-22T04:01:22;100701.13;;;14.02;100.00
44765;BME280;30484;52.382;5.260;2023-03-22T04:03:52;100690.56;;;14.39;100.00
44765;BME280;30484;52.382;5.260;2023-03-22T04:06:22;100696.88;;;13.85;100.00
44765;BME280;30484;52.382;5.260;2023-03-22T04:08:50;100690.09;;;13.79;100.00
44765;BME280;30484;52.382;5.260;2023-03-22T04:11:19;100691.91;;;14.06;100.00
44765;BME280;30484;52.382;5.260;2023-03-22T04:13:50;100691.09;;;13.63;100.00
44765;BME280;30484;52.382;5.260;2023-03-22T04:16:18;100696.50;;;14.04;100.00
44765;BME280;30484;52.382;5.260;2023-03-22T04:18:47;100690.47;;;14.00;100.00
44765;BME280;30484;52.382;5.260;2023-03-22T04:21:15;100690.44;;;13.87;100.00
44765;BME280;30484;52.382;5.260;2023-03-22T04:23:44;100692.22;;;14.01;100.00
44765;BME280;30484;52.382;5.260;2023-03-22T04:26:13;100694.00;;;14.01;100.00
44765;BME280;30484;52.382;5.260;2023-03-22T04:28:41;100683.13;;;13.62;100.00
44765;BME280;30484;52.382;5.260;2023-03-22T04:31:11;100677.75;;;13.89;100.00
44765;BME280;30484;52.382;5.260;2023-03-22T04:33:40;100679.75;;;14.13;100.00
44765;BME280;30484;52.382;5.260;2023-03-22T04:36:13;100669.03;;;13.45;100.00
44765;BME280;30484;52.382;5.260;2023-03-22T04:38:43;100681.97;;;13.39;100.00
44765;BME280;30484;52.382;5.260;2023-03-22T04:41:12;100668.06;;;14.14;100.00
44765;BME280;30484;52.382;5.260;2023-03-22T04:43:40;100677.91;;;14.01;100.00
44765;BME280;30484;52.382;5.260;2023-03-22T04:46:14;100671.84;;;13.84;100.00
44765;BME280;30484;52.382;5.260;2023-03-22T04:48:44;100666.19;;;13.61;100.00
44765;BME280;30484;52.382;5.260;2023-03-22T04:51:13;100662.41;;;13.91;100.00
44765;BME280;30484;52.382;5.260;2023-03-22T04:53:41;100656.19;;;13.63;100.00
44765;BME280;30484;52.382;5.260;2023-03-22T04:56:13;100658.31;;;13.86;100.00
44765;BME280;30484;52.382;5.260;2023-03-22T04:58:43;100653.09;;;13.42;100.00
44765;BME280;30484;52.382;5.260;2023-03-22T05:01:16;100655.56;;;14.00;100.00
44765;BME280;30484;52.382;5.260;2023-03-22T05:03:45;100650.75;;;13.78;100.00
44765;BME280;30484;52.382;5.260;2023-03-22T05:06:14;100650.66;;;14.07;100.00
44765;BME280;30484;52.382;5.260;2023-03-22T05:08:43;100642.47;;;13.95;100.00
44765;BME280;30484;52.382;5.260;2023-03-22T05:11:14;100640.38;;;13.86;100.00
44765;BME280;30484;52.382;5.260;2023-03-22T05:13:43;100636.13;;;13.69;100.00
44765;BME280;30484;52.382;5.260;2023-03-22T05:16:13;100630.88;;;14.46;100.00
44765;BME280;30484;52.382;5.260;2023-03-22T05:18:42;100633.13;;;14.14;100.00
44765;BME280;30484;52.382;5.260;2023-03-22T05:21:13;100632.81;;;13.66;100.00
44765;BME280;30484;52.382;5.260;2023-03-22T05:23:43;100631.59;;;13.57;100.00
44765;BME280;30484;52.382;5.260;2023-03-22T05:26:14;100633.88;;;13.63;100.00
44765;BME280;30484;52.382;5.260;2023-03-22T05:28:46;100632.16;;;14.15;100.00
44765;BME280;30484;52.382;5.260;2023-03-22T05:31:19;100630.75;;;14.09;100.00
44765;BME280;30484;52.382;5.260;2023-03-22T05:33:51;100622.63;;;13.84;100.00
44765;BME280;30484;52.382;5.260;2023-03-22T05:36:22;100622.59;;;13.71;100.00
44765;BME280;30484;52.382;5.260;2023-03-22T05:38:51;100615.47;;;13.84;100.00
44765;BME280;30484;52.382;5.260;2023-03-22T05:41:19;100627.72;;;13.61;100.00
44765;BME280;30484;52.382;5.260;2023-03-22T05:43:48;100617.25;;;14.11;100.00
44765;BME280;30484;52.382;5.260;2023-03-22T05:46:18;100606.75;;;13.93;100.00
44765;BME280;30484;52.382;5.260;2023-03-22T05:48:46;100610.59;;;14.17;100.00
44765;BME280;30484;52.382;5.260;2023-03-22T05:51:16;100608.72;;;13.51;100.00
44765;BME280;30484;52.382;5.260;2023-03-22T05:53:46;100590.13;;;13.88;100.00
44765;BME280;30484;52.382;5.260;2023-03-22T05:56:16;100599.00;;;13.76;100.00
44765;BME280;30484;52.382;5.260;2023-03-22T05:58:48;100593.16;;;14.22;100.00
44765;BME280;30484;52.382;5.260;2023-03-22T06:01:19;100602.63;;;13.62;100.00
44765;BME280;30484;52.382;5.260;2023-03-22T06:03:50;100591.44;;;13.95;100.00
44765;BME280;30484;52.382;5.260;2023-03-22T06:06:27;100579.50;;;13.59;100.00
44765;BME280;30484;52.382;5.260;2023-03-22T06:08:56;100596.06;;;14.19;100.00
44765;BME280;30484;52.382;5.260;2023-03-22T06:11:42;100584.22;;;13.96;100.00
44765;BME280;30484;52.382;5.260;2023-03-22T06:14:11;100583.25;;;13.84;100.00
44765;BME280;30484;52.382;5.260;2023-03-22T06:16:41;100596.22;;;13.77;100.00
44765;BME280;30484;52.382;5.260;2023-03-22T06:19:10;100609.53;;;13.79;100.00
44765;BME280;30484;52.382;5.260;2023-03-22T06:21:38;100612.16;;;14.19;100.00
44765;BME280;30484;52.382;5.260;2023-03-22T06:24:07;100603.13;;;14.07;100.00
44765;BME280;30484;52.382;5.260;2023-03-22T06:26:36;100589.72;;;13.54;100.00
44765;BME280;30484;52.382;5.260;2023-03-22T06:29:05;100600.53;;;13.80;100.00
44765;BME280;30484;52.382;5.260;2023-03-22T06:31:35;100598.63;;;14.33;100.00
44765;BME280;30484;52.382;5.260;2023-03-22T06:42:35;100601.00;;;14.12;100.00
44765;BME280;30484;52.382;5.260;2023-03-22T06:45:06;100593.28;;;14.59;100.00
44765;BME280;30484;52.382;5.260;2023-03-22T06:47:52;100594.47;;;14.29;100.00
44765;BME280;30484;52.382;5.260;2023-03-22T06:50:22;100598.84;;;14.18;100.00
44765;BME280;30484;52.382;5.260;2023-03-22T06:53:01;100596.72;;;14.23;100.00
44765;BME280;30484;52.382;5.260;2023-03-22T06:55:44;100593.34;;;14.58;100.00
44765;BME280;30484;52.382;5.260;2023-03-22T07:20:34;100599.50;;;14.21;100.00
44765;BME280;30484;52.382;5.260;2023-03-22T07:23:20;100601.31;;;14.46;100.00
44765;BME280;30484;52.382;5.260;2023-03-22T07:26:08;100589.16;;;14.15;100.00
44765;BME280;30484;52.382;5.260;2023-03-22T07:29:08;100587.78;;;14.22;100.00
44765;BME280;30484;52.382;5.260;2023-03-22T07:32:05;100599.06;;;14.14;100.00
44765;BME280;30484;52.382;5.260;2023-03-22T07:34:49;100583.56;;;14.82;100.00
44765;BME280;30484;52.382;5.260;2023-03-22T07:41:45;100581.28;;;14.89;100.00
44765;BME280;30484;52.382;5.260;2023-03-22T07:44:42;100570.09;;;14.95;100.00
44765;BME280;30484;52.382;5.260;2023-03-22T07:47:38;100566.59;;;14.69;100.00
44765;BME280;30484;52.382;5.260;2023-03-22T07:50:35;100561.94;;;15.21;100.00
44765;BME280;30484;52.382;5.260;2023-03-22T07:53:36;100572.84;;;14.70;100.00
44765;BME280;30484;52.382;5.260;2023-03-22T07:56:32;100576.28;;;14.72;100.00
44765;BME280;30484;52.382;5.260;2023-03-22T07:59:16;100572.09;;;15.05;100.00
44765;BME280;30484;52.382;5.260;2023-03-22T08:02:12;100573.59;;;15.09;100.00
44765;BME280;30484;52.382;5.260;2023-03-22T08:04:43;100582.00;;;15.04;100.00
44765;BME280;30484;52.382;5.260;2023-03-22T08:07:26;100575.16;;;15.24;100.00
44765;BME280;30484;52.382;5.260;2023-03-22T08:10:24;100578.97;;;14.72;100.00
44765;BME280;30484;52.382;5.260;2023-03-22T08:13:20;100583.91;;;15.15;100.00
44765;BME280;30484;52.382;5.260;2023-03-22T08:34:20;100579.84;;;15.82;100.00
44765;BME280;30484;52.382;5.260;2023-03-22T08:37:19;100572.56;;;15.23;100.00
44765;BME280;30484;52.382;5.260;2023-03-22T08:40:16;100573.41;;;15.23;100.00
44765;BME280;30484;52.382;5.260;2023-03-22T08:42:59;100564.63;;;15.21;100.00
44765;BME280;30484;52.382;5.260;2023-03-22T08:45:32;100573.13;;;14.91;100.00
44765;BME280;30484;52.382;5.260;2023-03-22T08:48:03;100574.63;;;15.19;100.00
44765;BME280;30484;52.382;5.260;2023-03-22T08:50:42;100568.91;;;15.48;100.00
44765;BME280;30484;52.382;5.260;2023-03-22T08:53:21;100569.59;;;15.39;100.00
44765;BME280;30484;52.382;5.260;2023-03-22T08:56:05;100571.81;;;14.96;100.00
44765;BME280;30484;52.382;5.260;2023-03-22T08:58:49;100574.50;;;14.96;100.00
44765;BME280;30484;52.382;5.260;2023-03-22T09:01:22;100579.56;;;15.25;100.00
44765;BME280;30484;52.382;5.260;2023-03-22T09:03:58;100587.00;;;14.84;100.00
44765;BME280;30484;52.382;5.260;2023-03-22T09:06:42;100585.97;;;14.48;100.00
44765;BME280;30484;52.382;5.260;2023-03-22T09:09:28;100596.38;;;14.53;100.00
44765;BME280;30484;52.382;5.260;2023-03-22T09:12:05;100586.41;;;14.68;100.00
44765;BME280;30484;52.382;5.260;2023-03-22T09:14:35;100589.72;;;14.46;100.00
44765;BME280;30484;52.382;5.260;2023-03-22T09:17:31;100584.22;;;14.47;100.00
44765;BME280;30484;52.382;5.260;2023-03-22T09:20:39;100581.03;;;14.42;100.00
44765;BME280;30484;52.382;5.260;2023-03-22T09:27:56;100590.38;;;14.11;100.00
44765;BME280;30484;52.382;5.260;2023-03-22T09:30:41;100583.28;;;14.10;100.00
44765;BME280;30484;52.382;5.260;2023-03-22T09:33:31;100586.59;;;14.01;100.00
44765;BME280;30484;52.382;5.260;2023-03-22T09:36:29;100579.50;;;14.51;100.00
44765;BME280;30484;52.382;5.260;2023-03-22T09:39:26;100585.06;;;13.96;100.00
44765;BME280;30484;52.382;5.260;2023-03-22T09:42:27;100587.03;;;14.20;100.00
44765;BME280;30484;52.382;5.260;2023-03-22T09:45:33;100591.03;;;13.61;100.00
44765;BME280;30484;52.382;5.260;2023-03-22T09:48:37;100597.75;;;13.94;100.00
44765;BME280;30484;52.382;5.260;2023-03-22T09:51:22;100588.34;;;13.61;100.00
44765;BME280;30484;52.382;5.260;2023-03-22T09:53:56;100586.00;;;13.70;100.00
44765;BME280;30484;52.382;5.260;2023-03-22T09:56:28;100600.34;;;14.09;100.00
44765;BME280;30484;52.382;5.260;2023-03-22T09:59:07;100587.47;;;14.40;100.00
44765;BME280;30484;52.382;5.260;2023-03-22T10:01:57;100593.25;;;14.08;100.00
44765;BME280;30484;52.382;5.260;2023-03-22T10:04:50;100585.00;;;13.98;100.00
44765;BME280;30484;52.382;5.260;2023-03-22T10:07:28;100585.59;;;13.89;100.00
44765;BME280;30484;52.382;5.260;2023-03-22T10:10:14;100595.09;;;14.20;100.00
44765;BME280;30484;52.382;5.260;2023-03-22T10:12:52;100595.41;;;14.15;100.00
44765;BME280;30484;52.382;5.260;2023-03-22T10:15:28;100597.06;;;13.38;100.00
44765;BME280;30484;52.382;5.260;2023-03-22T10:18:12;100602.72;;;14.13;100.00
44765;BME280;30484;52.382;5.260;2023-03-22T10:20:47;100588.22;;;14.16;100.00
44765;BME280;30484;52.382;5.260;2023-03-22T10:23:21;100599.84;;;14.17;100.00
44765;BME280;30484;52.382;5.260;2023-03-22T10:25:55;100600.81;;;14.28;100.00
44765;BME280;30484;52.382;5.260;2023-03-22T10:28:39;100599.25;;;13.86;100.00
44765;BME280;30484;52.382;5.260;2023-03-22T10:31:14;100601.56;;;13.64;100.00
44765;BME280;30484;52.382;5.260;2023-03-22T10:33:53;100601.84;;;14.13;100.00
44765;BME280;30484;52.382;5.260;2023-03-22T10:36:30;100602.19;;;13.55;100.00
44765;BME280;30484;52.382;5.260;2023-03-22T10:39:07;100599.97;;;13.75;100.00
44765;BME280;30484;52.382;5.260;2023-03-22T10:41:43;100621.84;;;14.09;100.00
44765;BME280;30484;52.382;5.260;2023-03-22T10:44:17;100594.16;;;13.68;100.00
44765;BME280;30484;52.382;5.260;2023-03-22T10:47:01;100597.66;;;13.56;100.00
44765;BME280;30484;52.382;5.260;2023-03-22T10:49:44;100588.22;;;14.42;100.00
44765;BME280;30484;52.382;5.260;2023-03-22T10:52:30;100575.44;;;14.32;100.00
44765;BME280;30484;52.382;5.260;2023-03-22T10:55:08;100583.38;;;14.60;100.00
44765;BME280;30484;52.382;5.260;2023-03-22T10:57:42;100576.84;;;14.12;100.00
44765;BME280;30484;52.382;5.260;2023-03-22T11:00:22;100576.50;;;14.17;100.00
44765;BME280;30484;52.382;5.260;2023-03-22T11:02:57;100548.25;;;14.24;100.00
44765;BME280;30484;52.382;5.260;2023-03-22T11:05:31;100571.66;;;14.22;100.00
44765;BME280;30484;52.382;5.260;2023-03-22T11:08:02;100570.69;;;13.97;100.00
44765;BME280;30484;52.382;5.260;2023-03-22T11:10:35;100593.47;;;14.05;100.00
44765;BME280;30484;52.382;5.260;2023-03-22T11:13:18;100590.16;;;14.65;100.00
44765;BME280;30484;52.382;5.260;2023-03-22T11:15:54;100587.34;;;14.54;100.00
44765;BME280;30484;52.382;5.260;2023-03-22T11:18:45;100573.06;;;14.54;100.00
44765;BME280;30484;52.382;5.260;2023-03-22T11:21:17;100564.66;;;14.58;100.00
44765;BME280;30484;52.382;5.260;2023-03-22T11:23:56;100572.94;;;14.81;100.00
44765;BME280;30484;52.382;5.260;2023-03-22T11:26:31;100566.81;;;14.66;100.00
44765;BME280;30484;52.382;5.260;2023-03-22T11:29:16;100566.94;;;14.64;100.00
44765;BME280;30484;52.382;5.260;2023-03-22T11:31:54;100590.16;;;14.14;100.00
44765;BME280;30484;52.382;5.260;2023-03-22T11:34:29;100584.03;;;14.63;100.00
44765;BME280;30484;52.382;5.260;2023-03-22T11:37:08;100605.16;;;14.94;100.00
44765;BME280;30484;52.382;5.260;2023-03-22T11:39:46;100607.91;;;14.68;100.00
44765;BME280;30484;52.382;5.260;2023-03-22T11:42:19;100613.16;;;14.82;100.00
44765;BME280;30484;52.382;5.260;2023-03-22T11:44:48;100613.28;;;14.55;100.00
44765;BME280;30484;52.382;5.260;2023-03-22T11:47:18;100611.22;;;14.59;100.00
44765;BME280;30484;52.382;5.260;2023-03-22T11:49:49;100620.78;;;14.50;100.00
44765;BME280;30484;52.382;5.260;2023-03-22T11:52:25;100610.22;;;14.98;100.00
44765;BME280;30484;52.382;5.260;2023-03-22T11:54:55;100614.34;;;14.27;100.00
44765;BME280;30484;52.382;5.260;2023-03-22T11:57:31;100613.34;;;14.41;100.00
44765;BME280;30484;52.382;5.260;2023-03-22T12:00:17;100605.41;;;14.65;100.00
44765;BME280;30484;52.382;5.260;2023-03-22T12:02:53;100602.72;;;14.39;100.00
44765;BME280;30484;52.382;5.260;2023-03-22T12:05:25;100609.25;;;14.99;100.00
44765;BME280;30484;52.382;5.260;2023-03-22T12:08:10;100611.94;;;14.99;100.00
44765;BME280;30484;52.382;5.260;2023-03-22T12:10:46;100596.91;;;14.84;100.00
44765;BME280;30484;52.382;5.260;2023-03-22T12:13:22;100615.84;;;14.44;100.00
44765;BME280;30484;52.382;5.260;2023-03-22T12:16:00;100609.81;;;14.79;100.00
44765;BME280;30484;52.382;5.260;2023-03-22T12:18:37;100604.38;;;15.05;100.00
44765;BME280;30484;52.382;5.260;2023-03-22T12:21:10;100607.22;;;14.90;100.00
44765;BME280;30484;52.382;5.260;2023-03-22T12:23:41;100596.72;;;14.74;100.00
44765;BME280;30484;52.382;5.260;2023-03-22T12:26:16;100605.09;;;14.82;100.00
44765;BME280;30484;52.382;5.260;2023-03-22T12:28:52;100604.34;;;15.17;100.00
44765;BME280;30484;52.382;5.260;2023-03-22T12:31:25;100601.88;;;14.64;100.00
44765;BME280;30484;52.382;5.260;2023-03-22T12:33:59;100595.75;;;14.75;100.00
44765;BME280;30484;52.382;5.260;2023-03-22T12:36:36;100601.44;;;14.71;100.00
44765;BME280;30484;52.382;5.260;2023-03-22T12:39:17;100599.81;;;14.81;100.00
44765;BME280;30484;52.382;5.260;2023-03-22T12:41:54;100596.16;;;14.82;100.00
44765;BME280;30484;52.382;5.260;2023-03-22T12:44:31;100591.31;;;14.87;100.00
44765;BME280;30484;52.382;5.260;2023-03-22T12:47:11;100583.94;;;15.02;100.00
44765;BME280;30484;52.382;5.260;2023-03-22T12:49:53;100577.44;;;14.55;100.00
44765;BME280;30484;52.382;5.260;2023-03-22T12:52:35;100570.66;;;15.12;100.00
44765;BME280;30484;52.382;5.260;2023-03-22T12:55:21;100572.41;;;14.63;100.00
44765;BME280;30484;52.382;5.260;2023-03-22T12:57:58;100584.34;;;15.09;100.00
44765;BME280;30484;52.382;5.260;2023-03-22T13:00:33;100589.34;;;14.89;100.00
44765;BME280;30484;52.382;5.260;2023-03-22T13:03:17;100596.91;;;14.58;100.00
44765;BME280;30484;52.382;5.260;2023-03-22T13:06:04;100601.81;;;15.03;100.00
44765;BME280;30484;52.382;5.260;2023-03-22T13:09:13;100602.13;;;14.98;100.00
44765;BME280;30484;52.382;5.260;2023-03-22T13:11:47;100593.38;;;15.21;100.00
44765;BME280;30484;52.382;5.260;2023-03-22T13:14:55;100594.72;;;14.89;100.00
44765;BME280;30484;52.382;5.260;2023-03-22T13:17:42;100590.41;;;14.99;100.00
44765;BME280;30484;52.382;5.260;2023-03-22T13:20:28;100609.72;;;14.42;100.00
44765;BME280;30484;52.382;5.260;2023-03-22T13:23:23;100603.38;;;14.69;100.00
44765;BME280;30484;52.382;5.260;2023-03-22T13:26:02;100596.91;;;14.84;100.00
44765;BME280;30484;52.382;5.260;2023-03-22T13:28:35;100585.97;;;15.11;100.00
44765;BME280;30484;52.382;5.260;2023-03-22T13:31:19;100582.06;;;15.15;100.00
44765;BME280;30484;52.382;5.260;2023-03-22T13:34:01;100587.66;;;14.88;100.00
44765;BME280;30484;52.382;5.260;2023-03-22T13:36:31;100577.25;;;15.08;100.00
44765;BME280;30484;52.382;5.260;2023-03-22T13:39:01;100577.00;;;15.24;100.00
44765;BME280;30484;52.382;5.260;2023-03-22T13:41:47;100579.00;;;14.96;100.00
44765;BME280;30484;52.382;5.260;2023-03-22T13:44:29;100574.06;;;15.51;100.00
44765;BME280;30484;52.382;5.260;2023-03-22T13:47:00;100581.59;;;14.97;100.00
44765;BME280;30484;52.382;5.260;2023-03-22T13:49:49;100577.03;;;15.11;100.00
44765;BME280;30484;52.382;5.260;2023-03-22T13:52:32;100580.50;;;15.73;100.00
44765;BME280;30484;52.382;5.260;2023-03-22T13:57:59;100584.13;;;15.12;100.00
44765;BME280;30484;52.382;5.260;2023-03-22T14:00:54;100571.38;;;15.51;100.00
44765;BME280;30484;52.382;5.260;2023-03-22T14:03:28;100579.38;;;15.64;100.00
44765;BME280;30484;52.382;5.260;2023-03-22T14:06:10;100573.78;;;15.18;100.00
44765;BME280;30484;52.382;5.260;2023-03-22T14:08:46;100567.84;;;15.86;100.00
44765;BME280;30484;52.382;5.260;2023-03-22T14:11:59;100561.38;;;15.64;100.00
44765;BME280;30484;52.382;5.260;2023-03-22T14:15:02;100547.81;;;15.17;100.00
44765;BME280;30484;52.382;5.260;2023-03-22T14:17:41;100542.13;;;14.98;100.00
44765;BME280;30484;52.382;5.260;2023-03-22T14:20:16;100559.47;;;14.81;100.00
44765;BME280;30484;52.382;5.260;2023-03-22T14:22:49;100539.41;;;15.46;100.00
44765;BME280;30484;52.382;5.260;2023-03-22T14:25:21;100532.38;;;15.32;100.00
44765;BME280;30484;52.382;5.260;2023-03-22T14:27:51;100540.28;;;14.98;100.00
44765;BME280;30484;52.382;5.260;2023-03-22T14:30:33;100533.06;;;15.59;100.00
44765;BME280;30484;52.382;5.260;2023-03-22T14:33:08;100525.69;;;15.38;100.00
44765;BME280;30484;52.382;5.260;2023-03-22T14:35:41;100518.97;;;15.44;100.00
44765;BME280;30484;52.382;5.260;2023-03-22T14:38:17;100517.91;;;15.82;100.00